createdAt,value
2022-10-19T00:02:11.462Z,99176.97
2022-10-19T00:04:38.158Z,99186.88
2022-10-19T00:07:04.692Z,99187.25
2022-10-19T00:09:31.332Z,99187.38
2022-10-19T00:11:57.879Z,99185.56
2022-10-19T00:14:24.811Z,99183.69
2022-10-19T00:16:52.915Z,99183.41
2022-10-19T00:19:23.156Z,99177.41
2022-10-19T00:24:17.785Z,99182.28
2022-10-19T00:26:44.681Z,99179.53
2022-10-19T00:29:13.537Z,99179.00
2022-10-19T00:31:41.200Z,99181.19
2022-10-19T00:34:07.946Z,99172.88
2022-10-19T00:36:38.055Z,99177.34
2022-10-19T00:39:07.762Z,99174.75
2022-10-19T00:41:36.398Z,99173.50
2022-10-19T00:44:11.939Z,99169.13
2022-10-19T00:46:39.554Z,99166.44
2022-10-19T00:49:20.427Z,99162.50
2022-10-19T00:51:54.659Z,99162.38
2022-10-19T00:54:22.235Z,99153.59
2022-10-19T00:56:52.232Z,99152.13
2022-10-19T00:59:21.636Z,99148.75
2022-10-19T01:01:49.879Z,99146.56
2022-10-19T01:04:16.818Z,99155.03
2022-10-19T01:06:43.548Z,99151.63
2022-10-19T01:09:10.264Z,99151.72
2022-10-19T01:11:39.915Z,99142.84
2022-10-19T01:14:21.427Z,99149.25
2022-10-19T01:17:15.751Z,99144.44
2022-10-19T01:19:57.450Z,99140.09
2022-10-19T01:22:26.705Z,99132.25
2022-10-19T01:25:21.239Z,99132.53
2022-10-19T01:27:59.664Z,99133.47
2022-10-19T01:30:41.431Z,99128.19
2022-10-19T01:33:35.372Z,99128.09
2022-10-19T01:36:10.995Z,99132.63
2022-10-19T01:38:59.099Z,99124.03
2022-10-19T01:41:38.825Z,99125.50
2022-10-19T01:44:16.847Z,99124.34
2022-10-19T01:46:57.033Z,99118.72
2022-10-19T01:49:31.610Z,99115.22
2022-10-19T01:52:03.281Z,99115.94
2022-10-19T01:54:36.256Z,99106.91
2022-10-19T01:57:07.210Z,99104.22
2022-10-19T01:59:35.254Z,99101.72
2022-10-19T02:02:07.016Z,99105.97
2022-10-19T02:04:36.665Z,99110.50
2022-10-19T02:07:06.515Z,99103.75
2022-10-19T02:09:33.198Z,99112.28
2022-10-19T02:12:04.854Z,99109.03
2022-10-19T02:14:37.438Z,99108.66
2022-10-19T02:17:14.212Z,99102.28
2022-10-19T02:19:41.563Z,99099.81
2022-10-19T02:22:08.628Z,99102.38
2022-10-19T02:24:35.266Z,99095.22
2022-10-19T02:27:05.432Z,99100.09
2022-10-19T02:29:37.520Z,99092.44
2022-10-19T02:32:04.965Z,99094.94
2022-10-19T02:34:32.623Z,99102.44
2022-10-19T02:36:59.540Z,99098.28
2022-10-19T02:39:26.276Z,99095.53
2022-10-19T02:42:12.114Z,99095.88
2022-10-19T02:44:58.448Z,99093.94
2022-10-19T02:47:35.454Z,99084.44
2022-10-19T02:50:06.802Z,99088.59
2022-10-19T02:52:33.437Z,99091.28
2022-10-19T02:55:00.013Z,99082.97
2022-10-19T02:57:26.634Z,99079.84
2022-10-19T02:59:53.430Z,99078.72
2022-10-19T03:02:21.261Z,99076.13
2022-10-19T03:07:21.037Z,99076.06
2022-10-19T03:09:47.682Z,99076.06
2022-10-19T03:12:14.886Z,99070.63
2022-10-19T03:14:41.617Z,99071.53
2022-10-19T03:17:08.560Z,99070.97
2022-10-19T03:19:36.112Z,99072.00
2022-10-19T03:22:03.239Z,99067.31
2022-10-19T03:24:30.740Z,99071.28
2022-10-19T03:26:57.492Z,99072.09
2022-10-19T03:29:24.234Z,99065.75
2022-10-19T03:31:51.125Z,99071.56
2022-10-19T03:34:17.752Z,99072.84
2022-10-19T03:36:44.695Z,99078.47
2022-10-19T03:39:14.447Z,99075.78
2022-10-19T03:41:41.262Z,99073.94
2022-10-19T03:44:09.324Z,99071.19
2022-10-19T03:46:36.689Z,99075.91
2022-10-19T03:49:04.541Z,99080.41
2022-10-19T03:51:32.714Z,99079.66
2022-10-19T03:54:02.298Z,99075.81
2022-10-19T03:56:30.531Z,99082.88
2022-10-19T03:58:59.638Z,99074.06
2022-10-19T04:01:30.996Z,99076.88
2022-10-19T04:03:59.874Z,99074.06
2022-10-19T04:06:31.284Z,99069.41
2022-10-19T04:08:58.837Z,99070.06
2022-10-19T04:11:30.253Z,99070.06
2022-10-19T04:13:58.498Z,99072.91
2022-10-19T04:16:27.309Z,99071.06
2022-10-19T04:18:54.165Z,99066.91
2022-10-19T04:21:20.665Z,99062.97
2022-10-19T04:23:47.517Z,99061.38
2022-10-19T04:26:14.134Z,99056.78
2022-10-19T04:28:40.839Z,99060.00
2022-10-19T04:31:08.289Z,99051.34
2022-10-19T04:33:34.980Z,99067.31
2022-10-19T04:36:07.235Z,99054.84
2022-10-19T04:38:34.719Z,99051.34
2022-10-19T04:41:06.569Z,99054.59
2022-10-19T04:43:33.893Z,99046.09
2022-10-19T04:46:10.742Z,99058.38
2022-10-19T04:48:38.602Z,99056.50
2022-10-19T04:51:05.739Z,99054.22
2022-10-19T04:53:33.265Z,99053.34
2022-10-19T04:56:00.356Z,99051.06
2022-10-19T04:58:27.382Z,99061.00
2022-10-19T05:00:54.055Z,99061.84
2022-10-19T05:03:20.830Z,99055.13
2022-10-19T05:05:47.430Z,99061.56
2022-10-19T05:08:14.364Z,99065.72
2022-10-19T05:10:44.215Z,99060.75
2022-10-19T05:13:13.751Z,99056.59
2022-10-19T05:15:40.643Z,99052.88
2022-10-19T05:18:07.494Z,99043.31
2022-10-19T05:20:34.160Z,99055.28
2022-10-19T05:23:06.151Z,99057.88
2022-10-19T05:25:34.246Z,99058.03
2022-10-19T05:28:00.785Z,99051.78
2022-10-19T05:30:27.495Z,99061.84
2022-10-19T05:32:54.076Z,99060.56
2022-10-19T05:35:22.626Z,99037.03
2022-10-19T05:37:54.385Z,99050.13
2022-10-19T05:40:21.128Z,99059.50
2022-10-19T05:42:47.678Z,99049.03
2022-10-19T05:45:14.455Z,99049.28
2022-10-19T05:47:41.006Z,99047.81
2022-10-19T05:50:08.072Z,99046.88
2022-10-19T05:52:34.726Z,99043.31
2022-10-19T05:55:01.454Z,99045.31
2022-10-19T05:57:28.034Z,99046.25
2022-10-19T05:59:56.834Z,99045.31
2022-10-19T06:02:23.682Z,99047.34
2022-10-19T06:04:50.323Z,99042.91
2022-10-19T06:07:17.082Z,99054.25
2022-10-19T06:09:43.941Z,99051.31
2022-10-19T06:12:10.554Z,99052.25
2022-10-19T06:14:37.277Z,99054.34
2022-10-19T06:17:03.992Z,99058.31
2022-10-19T06:19:30.706Z,99056.00
2022-10-19T06:21:58.030Z,99062.84
2022-10-19T06:24:24.717Z,99061.34
2022-10-19T06:26:51.403Z,99061.91
2022-10-19T06:29:19.001Z,99068.81
2022-10-19T06:31:48.682Z,99069.41
2022-10-19T06:34:15.626Z,99068.91
2022-10-19T06:36:42.353Z,99077.94
2022-10-19T06:39:09.549Z,99081.34
2022-10-19T06:41:36.311Z,99075.47
2022-10-19T06:44:18.117Z,99080.44
2022-10-19T06:46:44.738Z,99077.94
2022-10-19T06:49:13.093Z,99077.59
2022-10-19T06:51:40.730Z,99074.28
2022-10-19T06:54:07.953Z,99082.66
2022-10-19T06:56:35.038Z,99079.06
2022-10-19T06:59:02.350Z,99088.88
2022-10-19T07:01:29.179Z,99094.66
2022-10-19T07:03:56.010Z,99100.50
2022-10-19T07:06:23.746Z,99098.28
2022-10-19T07:08:50.541Z,99097.91
2022-10-19T07:11:19.755Z,99092.56
2022-10-19T07:13:46.558Z,99092.31
2022-10-19T07:16:19.810Z,99094.63
2022-10-19T07:18:48.659Z,99092.47
2022-10-19T07:21:16.763Z,99090.28
2022-10-19T07:23:47.394Z,99088.25
2022-10-19T07:26:17.849Z,99091.66
2022-10-19T07:28:47.157Z,99091.66
2022-10-19T07:31:17.951Z,99088.16
2022-10-19T07:33:45.046Z,99094.78
2022-10-19T07:36:13.743Z,99096.28
2022-10-19T07:38:40.791Z,99090.00
2022-10-19T07:41:12.694Z,99087.31
2022-10-19T07:43:40.947Z,99083.81
2022-10-19T07:46:29.346Z,99093.09
2022-10-19T07:48:56.240Z,99085.91
2022-10-19T07:51:22.980Z,99078.88
2022-10-19T07:53:49.895Z,99082.09
2022-10-19T07:56:25.045Z,99085.41
2022-10-19T07:58:53.841Z,99092.34
2022-10-19T08:01:29.337Z,99086.25
2022-10-19T08:04:48.586Z,99079.88
2022-10-19T08:06:43.825Z,99078.75
2022-10-19T08:09:13.400Z,99076.28
2022-10-19T08:11:49.686Z,99075.88
2022-10-19T08:14:16.547Z,99071.16
2022-10-19T08:16:44.624Z,99068.25
2022-10-19T08:19:13.706Z,99075.91
2022-10-19T08:21:43.939Z,99065.38
2022-10-19T08:24:13.063Z,99071.91
2022-10-19T08:26:40.917Z,99065.41
2022-10-19T08:29:12.345Z,99063.56
2022-10-19T08:31:40.335Z,99064.19
2022-10-19T08:34:07.154Z,99063.16
2022-10-19T08:36:35.938Z,99060.91
2022-10-19T08:39:05.305Z,99057.66
2022-10-19T08:41:41.418Z,99060.75
2022-10-19T08:44:33.344Z,99064.25
2022-10-19T08:47:27.087Z,99063.78
2022-10-19T08:49:54.091Z,99054.13
2022-10-19T08:52:35.977Z,99053.94
2022-10-19T08:55:13.992Z,99055.47
2022-10-19T08:58:20.586Z,99047.72
2022-10-19T09:01:16.648Z,99050.63
2022-10-19T09:04:01.821Z,99039.75
2022-10-19T09:06:49.153Z,99043.59
2022-10-19T09:09:18.644Z,99038.91
2022-10-19T09:11:49.551Z,99043.16
2022-10-19T09:14:30.452Z,99048.41
2022-10-19T09:17:04.201Z,99045.19
2022-10-19T09:19:32.089Z,99048.50
2022-10-19T09:22:04.663Z,99040.09
2022-10-19T09:24:48.283Z,99047.75
2022-10-19T09:27:22.153Z,99043.63
2022-10-19T09:29:57.484Z,99046.44
2022-10-19T09:32:39.779Z,99041.13
2022-10-19T09:35:25.066Z,99042.88
2022-10-19T09:37:52.489Z,99044.09
2022-10-19T09:40:22.930Z,99033.50
2022-10-19T09:42:57.671Z,99039.22
2022-10-19T09:45:40.595Z,99034.06
2022-10-19T09:48:19.925Z,99036.59
2022-10-19T09:50:53.939Z,99030.72
2022-10-19T09:53:22.338Z,99032.25
2022-10-19T09:55:58.952Z,99035.84
2022-10-19T09:58:32.070Z,99034.34
2022-10-19T10:01:01.889Z,99027.56
2022-10-19T10:03:40.425Z,99031.34
2022-10-19T10:06:10.442Z,99026.03
2022-10-19T10:08:45.020Z,99023.31
2022-10-19T10:11:37.827Z,99025.34
2022-10-19T10:14:16.341Z,99021.25
2022-10-19T10:16:43.590Z,99029.75
2022-10-19T10:19:14.262Z,99025.97
2022-10-19T10:21:49.601Z,99031.53
2022-10-19T10:24:19.202Z,99031.53
2022-10-19T10:26:51.876Z,99023.03
2022-10-19T10:29:22.325Z,99023.56
2022-10-19T10:31:55.898Z,99023.34
2022-10-19T10:37:22.063Z,99017.66
2022-10-19T10:39:53.303Z,99010.09
2022-10-19T10:42:27.442Z,99017.06
2022-10-19T10:44:56.492Z,98994.50
2022-10-19T10:47:23.744Z,99009.28
2022-10-19T10:49:57.597Z,99003.84
2022-10-19T10:52:27.718Z,98997.22
2022-10-19T10:55:09.969Z,98993.69
2022-10-19T10:57:45.339Z,98990.59
2022-10-19T11:00:13.274Z,98990.47
2022-10-19T11:02:53.230Z,98986.09
2022-10-19T11:05:29.112Z,98984.66
2022-10-19T11:08:08.068Z,98983.47
2022-10-19T11:10:39.595Z,98974.91
2022-10-19T11:13:18.511Z,98968.84
2022-10-19T11:16:00.940Z,98972.28
2022-10-19T11:18:34.267Z,98963.03
2022-10-19T11:21:07.962Z,98962.59
2022-10-19T11:23:48.126Z,98955.34
2022-10-19T11:26:53.966Z,98955.41
2022-10-19T11:29:29.582Z,98952.00
2022-10-19T11:31:57.570Z,98950.16
2022-10-19T11:34:45.678Z,98942.41
2022-10-19T11:37:27.868Z,98935.72
2022-10-19T11:39:54.509Z,98933.19
2022-10-19T11:45:27.797Z,98916.41
2022-10-19T11:48:06.560Z,98916.69
2022-10-19T11:50:58.586Z,98914.06
2022-10-19T11:53:49.603Z,98913.84
2022-10-19T11:57:02.580Z,98907.50
2022-10-19T11:59:51.022Z,98906.44
2022-10-19T12:02:39.052Z,98906.59
2022-10-19T12:05:29.798Z,98898.13
2022-10-19T12:08:08.777Z,98900.38
2022-10-19T12:10:48.148Z,98894.22
2022-10-19T12:13:30.838Z,98886.78
2022-10-19T12:15:59.586Z,98889.69
2022-10-19T12:18:41.214Z,98883.94
2022-10-19T12:21:26.533Z,98879.81
2022-10-19T12:23:54.661Z,98873.94
2022-10-19T12:26:22.962Z,98879.31
2022-10-19T12:28:58.926Z,98872.59
2022-10-19T12:31:27.330Z,98868.88
2022-10-19T12:34:06.082Z,98865.44
2022-10-19T12:36:58.411Z,98869.72
2022-10-19T12:39:29.755Z,98861.59
2022-10-19T12:42:27.677Z,98857.91
2022-10-19T12:45:23.841Z,98852.03
2022-10-19T12:48:08.706Z,98849.53
2022-10-19T12:50:50.880Z,98850.09
2022-10-19T12:53:33.021Z,98843.50
2022-10-19T12:56:04.416Z,98840.88
2022-10-19T12:58:47.582Z,98837.03
2022-10-19T13:01:35.107Z,98839.78
2022-10-19T13:04:10.404Z,98839.22
2022-10-19T13:06:42.119Z,98845.13
2022-10-19T13:09:22.134Z,98837.88
2022-10-19T13:12:16.497Z,98833.44
2022-10-19T13:14:58.870Z,98834.69
2022-10-19T13:17:36.610Z,98819.16
2022-10-19T13:20:15.349Z,98830.25
2022-10-19T13:22:46.937Z,98823.41
2022-10-19T13:25:20.878Z,98824.63
2022-10-19T13:27:52.715Z,98823.44
2022-10-19T13:30:46.991Z,98817.94
2022-10-19T13:33:24.782Z,98812.66
2022-10-19T13:36:00.957Z,98813.75
2022-10-19T13:38:38.037Z,98818.28
2022-10-19T13:41:25.895Z,98805.63
2022-10-19T13:44:12.267Z,98802.09
2022-10-19T13:47:10.254Z,98797.41
2022-10-19T13:49:40.221Z,98790.47
2022-10-19T13:52:24.302Z,98796.66
2022-10-19T13:55:12.689Z,98786.38
2022-10-19T13:57:54.172Z,98785.84
2022-10-19T14:00:24.117Z,98788.75
2022-10-19T14:03:11.804Z,98791.91
2022-10-19T14:06:06.397Z,98791.13
2022-10-19T14:08:41.966Z,98785.50
2022-10-19T14:11:21.764Z,98775.25
2022-10-19T14:14:13.575Z,98785.22
2022-10-19T14:16:59.804Z,98787.38
2022-10-19T14:19:32.910Z,98783.63
2022-10-19T14:22:01.772Z,98785.09
2022-10-19T14:24:35.318Z,98782.34
2022-10-19T14:27:05.183Z,98784.28
2022-10-19T14:29:46.469Z,98784.94
2022-10-19T14:32:13.666Z,98780.09
2022-10-19T14:34:42.117Z,98781.44
2022-10-19T14:37:21.064Z,98776.13
2022-10-19T14:40:06.349Z,98776.81
2022-10-19T14:42:42.048Z,98783.41
2022-10-19T14:45:18.267Z,98770.31
2022-10-19T14:47:57.532Z,98769.16
2022-10-19T14:50:46.920Z,98773.28
2022-10-19T14:53:50.674Z,98779.06
2022-10-19T14:56:29.635Z,98786.50
2022-10-19T14:59:47.808Z,98774.13
2022-10-19T15:02:26.491Z,98781.81
2022-10-19T15:04:56.304Z,98778.81
2022-10-19T15:07:34.967Z,98781.91
2022-10-19T15:10:05.339Z,98779.22
2022-10-19T15:12:39.021Z,98778.31
2022-10-19T15:15:33.635Z,98776.09
2022-10-19T15:18:00.472Z,98782.19
2022-10-19T15:20:44.254Z,98764.13
2022-10-19T15:23:41.685Z,98780.41
2022-10-19T15:26:26.707Z,98779.66
2022-10-19T15:28:55.391Z,98786.84
2022-10-19T15:31:27.806Z,98772.00
2022-10-19T15:33:57.461Z,98777.50
2022-10-19T15:36:25.539Z,98775.34
2022-10-19T15:39:06.267Z,98783.50
2022-10-19T15:41:44.896Z,98776.50
2022-10-19T15:44:42.470Z,98776.66
2022-10-19T15:47:15.235Z,98779.69
2022-10-19T15:49:41.878Z,98783.94
2022-10-19T15:52:16.101Z,98786.97
2022-10-19T15:54:42.968Z,98781.47
2022-10-19T15:57:39.731Z,98784.09
2022-10-19T16:00:16.054Z,98783.66
2022-10-19T16:02:42.977Z,98783.50
2022-10-19T16:05:10.017Z,98794.19
2022-10-19T16:07:40.089Z,98793.34
2022-10-19T16:10:08.198Z,98790.84
2022-10-19T16:12:34.911Z,98791.41
2022-10-19T16:15:01.466Z,98790.81
2022-10-19T16:17:28.197Z,98786.94
2022-10-19T16:19:54.748Z,98787.34
2022-10-19T16:22:21.437Z,98788.56
2022-10-19T16:24:48.118Z,98789.09
2022-10-19T16:27:16.123Z,98787.31
2022-10-19T16:29:44.306Z,98784.16
2022-10-19T16:32:11.095Z,98786.63
2022-10-19T16:34:38.102Z,98781.66
2022-10-19T16:37:06.908Z,98787.50
2022-10-19T16:39:34.450Z,98783.09
2022-10-19T16:42:01.334Z,98787.75
2022-10-19T16:44:27.912Z,98793.78
2022-10-19T16:46:56.625Z,98792.56
2022-10-19T16:49:23.561Z,98793.09
2022-10-19T16:51:53.231Z,98794.84
2022-10-19T16:54:23.976Z,98802.22
2022-10-19T16:56:50.536Z,98801.53
2022-10-19T16:59:18.446Z,98798.47
2022-10-19T17:01:46.532Z,98798.28
2022-10-19T17:04:15.300Z,98807.16
2022-10-19T17:06:42.133Z,98803.88
2022-10-19T17:11:55.817Z,98809.69
2022-10-19T17:14:22.466Z,98822.13
2022-10-19T17:16:49.098Z,98818.41
2022-10-19T17:19:15.716Z,98822.88
2022-10-19T17:21:42.705Z,98820.16
2022-10-19T17:24:20.196Z,98830.16
2022-10-19T17:26:49.478Z,98835.88
2022-10-19T17:29:16.217Z,98845.88
2022-10-19T17:31:43.550Z,98845.34
2022-10-19T17:34:10.716Z,98856.13
2022-10-19T17:39:17.752Z,98860.38
2022-10-19T17:41:48.974Z,98859.09
2022-10-19T17:44:16.910Z,98872.22
2022-10-19T17:46:44.273Z,98874.25
2022-10-19T17:49:11.452Z,98870.38
2022-10-19T17:51:38.786Z,98866.63
2022-10-19T17:54:08.289Z,98875.09
2022-10-19T17:56:36.626Z,98871.69
2022-10-19T17:59:04.286Z,98876.63
2022-10-19T18:01:31.528Z,98876.63
2022-10-19T18:03:58.078Z,98881.97
2022-10-19T18:06:27.498Z,98883.72
2022-10-19T18:08:56.482Z,98886.56
2022-10-19T18:11:25.154Z,98881.75
2022-10-19T18:13:54.045Z,98881.88
2022-10-19T18:16:23.738Z,98880.44
2022-10-19T18:18:53.414Z,98881.75
2022-10-19T18:21:24.794Z,98871.50
2022-10-19T18:23:53.374Z,98875.03
2022-10-19T18:26:25.779Z,98889.19
2022-10-19T18:28:53.254Z,98881.13
2022-10-19T18:31:21.922Z,98897.22
2022-10-19T18:33:55.201Z,98882.38
2022-10-19T18:36:21.856Z,98881.41
2022-10-19T18:38:52.747Z,98891.56
2022-10-19T18:41:20.082Z,98892.53
2022-10-19T18:43:55.367Z,98882.69
2022-10-19T18:46:23.589Z,98875.94
2022-10-19T18:48:50.197Z,98876.47
2022-10-19T18:51:18.927Z,98877.72
2022-10-19T18:53:46.255Z,98894.38
2022-10-19T18:56:15.658Z,98890.16
2022-10-19T18:58:42.659Z,98885.41
2022-10-19T19:01:22.940Z,98886.34
2022-10-19T19:03:52.157Z,98891.53
2022-10-19T19:06:22.110Z,98886.84
2022-10-19T19:08:49.269Z,98893.69
2022-10-19T19:11:32.953Z,98889.78
2022-10-19T19:14:15.261Z,98893.19
2022-10-19T19:16:42.987Z,98881.16
2022-10-19T19:19:12.561Z,98878.22
2022-10-19T19:21:41.867Z,98890.97
2022-10-19T19:24:08.514Z,98889.19
2022-10-19T19:26:39.633Z,98894.13
2022-10-19T19:29:06.424Z,98899.56
2022-10-19T19:31:33.362Z,98897.56
2022-10-19T19:34:01.100Z,98898.50
2022-10-19T19:36:28.500Z,98905.94
2022-10-19T19:38:56.979Z,98917.16
2022-10-19T19:41:23.733Z,98915.75
2022-10-19T19:43:50.472Z,98913.84
2022-10-19T19:46:19.307Z,98927.53
2022-10-19T19:48:47.965Z,98920.91
2022-10-19T19:51:21.018Z,98919.63
2022-10-19T19:53:48.757Z,98917.03
2022-10-19T19:56:16.851Z,98919.50
2022-10-19T19:58:45.252Z,98923.63
2022-10-19T20:01:18.253Z,98931.88
2022-10-19T20:03:46.040Z,98926.22
2022-10-19T20:06:14.702Z,98915.84
2022-10-19T20:08:41.432Z,98915.72
2022-10-19T20:11:16.141Z,98913.25
2022-10-19T20:13:44.840Z,98915.84
2022-10-19T20:16:14.975Z,98920.06
2022-10-19T20:18:45.136Z,98916.19
2022-10-19T20:21:12.226Z,98920.19
2022-10-19T20:23:38.993Z,98917.69
2022-10-19T20:26:06.285Z,98920.41
2022-10-19T20:28:33.258Z,98907.91
2022-10-19T20:31:08.000Z,98912.97
2022-10-19T20:33:36.451Z,98918.16
2022-10-19T20:36:08.100Z,98914.84
2022-10-19T20:38:35.944Z,98908.38
2022-10-19T20:41:08.416Z,98915.34
2022-10-19T20:43:36.887Z,98923.94
2022-10-19T20:46:11.832Z,98925.84
2022-10-19T20:48:39.635Z,98926.41
2022-10-19T20:51:09.054Z,98925.69
2022-10-19T20:53:35.793Z,98924.59
2022-10-19T20:56:06.987Z,98945.69
2022-10-19T20:58:34.684Z,98945.69
2022-10-19T21:01:19.426Z,98941.69
2022-10-19T21:03:48.766Z,98946.03
2022-10-19T21:06:15.963Z,98950.28
2022-10-19T21:08:42.834Z,98941.34
2022-10-19T21:11:16.989Z,98942.75
2022-10-19T21:13:44.149Z,98944.03
2022-10-19T21:16:13.609Z,98946.25
2022-10-19T21:18:40.723Z,98942.94
2022-10-19T21:21:16.001Z,98948.13
2022-10-19T21:23:44.393Z,98957.06
2022-10-19T21:26:11.088Z,98950.13
2022-10-19T21:28:38.449Z,98958.13
2022-10-19T21:31:09.247Z,98951.69
2022-10-19T21:33:36.408Z,98946.50
2022-10-19T21:36:05.451Z,98955.72
2022-10-19T21:38:32.248Z,98965.78
2022-10-19T21:41:07.874Z,98960.19
2022-10-19T21:43:35.143Z,98946.75
2022-10-19T21:46:03.566Z,98943.41
2022-10-19T21:48:31.074Z,98946.16
2022-10-19T21:50:57.681Z,98946.41
2022-10-19T21:53:24.407Z,98946.75
2022-10-19T21:55:52.713Z,98949.66
2022-10-19T21:58:23.177Z,98955.66
2022-10-19T22:00:49.810Z,98959.19
2022-10-19T22:03:18.204Z,98967.81
2022-10-19T22:05:51.726Z,98962.94
2022-10-19T22:08:18.390Z,98974.97
2022-10-19T22:10:44.942Z,98968.22
2022-10-19T22:13:11.559Z,98967.66
2022-10-19T22:15:39.032Z,98965.16
2022-10-19T22:18:05.792Z,98960.41
2022-10-19T22:20:36.105Z,98964.13
2022-10-19T22:23:04.795Z,98957.91
2022-10-19T22:25:32.386Z,98958.31
2022-10-19T22:27:59.069Z,98951.59
2022-10-19T22:30:25.887Z,98963.63
2022-10-19T22:32:52.701Z,98954.81
2022-10-19T22:35:19.397Z,98969.94
2022-10-19T22:37:46.156Z,98966.03
2022-10-19T22:40:13.254Z,98959.19
2022-10-19T22:42:39.854Z,98969.59
2022-10-19T22:45:06.993Z,98968.78
2022-10-19T22:47:33.628Z,98965.09
2022-10-19T22:50:00.226Z,98961.38
2022-10-19T22:52:26.901Z,98967.69
2022-10-19T22:54:53.668Z,98969.13
2022-10-19T22:57:20.340Z,98984.91
2022-10-19T22:59:46.958Z,98989.59
2022-10-19T23:02:13.593Z,98983.09
2022-10-19T23:04:40.141Z,98982.00
2022-10-19T23:07:06.858Z,98976.66
2022-10-19T23:09:33.446Z,98973.31
2022-10-19T23:12:00.114Z,98970.50
2022-10-19T23:14:26.722Z,98961.09
2022-10-19T23:16:53.388Z,98956.97
2022-10-19T23:19:20.097Z,98958.59
2022-10-19T23:21:46.759Z,98952.72
2022-10-19T23:24:13.308Z,98936.28
2022-10-19T23:26:39.995Z,98952.63
2022-10-19T23:29:06.593Z,98961.03
2022-10-19T23:31:33.707Z,98968.69
2022-10-19T23:34:00.271Z,98966.63
2022-10-19T23:36:28.596Z,98962.69
2022-10-19T23:38:57.301Z,98957.09
2022-10-19T23:41:24.089Z,98950.38
2022-10-19T23:43:50.923Z,98964.03
2022-10-19T23:46:17.577Z,98962.50
2022-10-19T23:48:44.188Z,98964.88
2022-10-19T23:51:16.578Z,98962.28
2022-10-19T23:53:44.906Z,98963.13
2022-10-19T23:56:20.746Z,98952.56
2022-10-19T23:58:47.753Z,98971.69
